createdAt,value
2022-09-06T00:00:14.552Z,4.10
2022-09-06T00:01:26.073Z,4.33
2022-09-06T00:02:37.682Z,4.63
2022-09-06T00:03:49.744Z,4.53
2022-09-06T00:05:01.318Z,4.07
2022-09-06T00:06:14.783Z,3.53
2022-09-06T00:07:26.317Z,3.93
2022-09-06T00:08:38.146Z,4.17
2022-09-06T00:09:49.645Z,4.03
2022-09-06T00:11:01.566Z,4.60
2022-09-06T00:12:13.094Z,4.87
2022-09-06T00:13:24.656Z,4.13
2022-09-06T00:14:36.152Z,4.53
2022-09-06T00:15:47.701Z,4.00
2022-09-06T00:16:59.251Z,4.47
2022-09-06T00:18:10.784Z,4.73
2022-09-06T00:19:22.491Z,4.53
2022-09-06T00:20:34.812Z,4.00
2022-09-06T00:21:46.297Z,4.20
2022-09-06T00:23:01.844Z,4.50
2022-09-06T00:24:13.377Z,4.03
2022-09-06T00:25:25.609Z,4.87
2022-09-06T00:26:37.178Z,4.10
2022-09-06T00:27:52.935Z,4.27
2022-09-06T00:29:04.451Z,4.10
2022-09-06T00:30:15.973Z,4.30
2022-09-06T00:31:27.599Z,4.03
2022-09-06T00:32:39.167Z,4.03
2022-09-06T00:33:51.140Z,4.77
2022-09-06T00:35:02.675Z,3.60
2022-09-06T00:36:14.496Z,4.53
2022-09-06T00:37:26.028Z,4.50
2022-09-06T00:38:38.098Z,3.90
2022-09-06T00:39:49.642Z,4.17
2022-09-06T00:41:01.281Z,4.37
2022-09-06T00:42:13.233Z,4.20
2022-09-06T00:43:24.936Z,3.93
2022-09-06T00:44:36.989Z,4.10
2022-09-06T00:45:48.705Z,4.50
2022-09-06T00:47:00.301Z,5.00
2022-09-06T00:48:12.136Z,4.90
2022-09-06T00:49:29.219Z,4.50
2022-09-06T00:50:40.738Z,4.13
2022-09-06T00:51:53.933Z,4.77
2022-09-06T00:53:05.479Z,4.57
2022-09-06T00:54:17.051Z,4.33
2022-09-06T00:55:28.642Z,4.47
2022-09-06T00:56:41.924Z,4.57
2022-09-06T00:57:53.841Z,5.10
2022-09-06T00:59:05.350Z,4.37
2022-09-06T01:00:17.474Z,4.53
2022-09-06T01:01:29.086Z,4.70
2022-09-06T01:02:40.929Z,4.70
2022-09-06T01:03:52.544Z,4.20
2022-09-06T01:05:04.669Z,3.97
2022-09-06T01:06:48.860Z,4.27
2022-09-06T01:08:08.667Z,4.17
2022-09-06T01:09:32.202Z,4.30
2022-09-06T01:10:46.628Z,4.67
2022-09-06T01:12:16.953Z,3.47
2022-09-06T01:13:31.288Z,4.27
2022-09-06T01:15:01.296Z,4.07
2022-09-06T01:16:17.393Z,4.77
2022-09-06T01:17:35.084Z,5.00
2022-09-06T01:19:05.052Z,4.40
2022-09-06T01:20:29.142Z,6.30
2022-09-06T01:21:59.084Z,4.53
2022-09-06T01:23:20.280Z,4.07
2022-09-06T01:24:54.816Z,4.03
2022-09-06T01:26:18.428Z,4.27
2022-09-06T01:27:29.950Z,4.40
2022-09-06T01:28:48.254Z,4.23
2022-09-06T01:30:07.127Z,3.50
2022-09-06T01:31:25.045Z,4.43
2022-09-06T01:32:36.590Z,4.53
2022-09-06T01:33:50.821Z,4.27
2022-09-06T01:35:27.252Z,4.70
2022-09-06T01:37:08.439Z,4.73
2022-09-06T01:38:19.412Z,5.57
2022-09-06T01:39:32.229Z,3.97
2022-09-06T01:40:43.773Z,4.50
2022-09-06T01:41:56.629Z,4.27
2022-09-06T01:43:13.531Z,4.07
2022-09-06T01:44:25.868Z,4.60
2022-09-06T01:45:53.981Z,5.07
2022-09-06T01:47:22.198Z,4.30
2022-09-06T01:48:47.957Z,5.17
2022-09-06T01:50:02.469Z,4.37
2022-09-06T01:51:24.605Z,4.27
2022-09-06T01:52:55.772Z,4.47
2022-09-06T01:54:10.033Z,3.87
2022-09-06T01:55:27.246Z,5.27
2022-09-06T01:57:05.121Z,4.60
2022-09-06T01:58:26.338Z,4.83
2022-09-06T01:59:49.961Z,4.90
2022-09-06T02:01:21.338Z,5.30
2022-09-06T02:02:32.987Z,4.73
2022-09-06T02:03:52.365Z,4.33
2022-09-06T02:05:09.114Z,4.43
2022-09-06T02:06:23.990Z,4.23
2022-09-06T02:07:36.934Z,4.53
2022-09-06T02:08:49.985Z,4.20
2022-09-06T02:10:13.843Z,4.30
2022-09-06T02:11:28.142Z,4.60
2022-09-06T02:12:41.102Z,4.43
2022-09-06T02:13:55.362Z,4.70
2022-09-06T02:15:10.049Z,4.30
2022-09-06T02:16:23.571Z,4.80
2022-09-06T02:17:38.880Z,4.20
2022-09-06T02:18:52.451Z,3.80
2022-09-06T02:20:09.502Z,4.00
2022-09-06T02:21:22.870Z,3.70
2022-09-06T02:22:39.263Z,3.60
2022-09-06T02:23:50.907Z,3.47
2022-09-06T02:25:03.745Z,4.00
2022-09-06T02:26:19.865Z,4.30
2022-09-06T02:27:32.699Z,4.10
2022-09-06T02:28:44.399Z,4.00
2022-09-06T02:29:55.915Z,4.10
2022-09-06T02:31:13.209Z,4.00
2022-09-06T02:32:26.526Z,5.07
2022-09-06T02:33:38.202Z,5.00
2022-09-06T02:34:54.849Z,4.33
2022-09-06T02:36:08.531Z,3.83
2022-09-06T02:37:20.707Z,4.43
2022-09-06T02:38:34.205Z,3.83
2022-09-06T02:39:45.754Z,3.83
2022-09-06T02:40:57.455Z,3.40
2022-09-06T02:42:14.033Z,3.90
2022-09-06T02:43:25.635Z,3.80
2022-09-06T02:44:37.200Z,3.67
2022-09-06T02:45:48.757Z,3.73
2022-09-06T02:47:01.606Z,3.80
2022-09-06T02:48:13.188Z,3.33
2022-09-06T02:49:25.621Z,3.70
2022-09-06T02:50:37.172Z,3.63
2022-09-06T02:51:48.670Z,3.97
2022-09-06T02:53:09.238Z,4.70
2022-09-06T02:54:20.712Z,4.10
2022-09-06T02:55:32.663Z,4.23
2022-09-06T02:56:47.002Z,4.23
2022-09-06T02:58:00.611Z,3.77
2022-09-06T02:59:12.118Z,3.77
2022-09-06T03:00:23.617Z,3.73
2022-09-06T03:01:35.199Z,3.00
2022-09-06T03:02:46.816Z,3.60
2022-09-06T03:03:58.354Z,3.70
2022-09-06T03:05:09.859Z,4.47
2022-09-06T03:06:21.452Z,4.13
2022-09-06T03:07:32.950Z,4.27
2022-09-06T03:08:44.474Z,4.17
2022-09-06T03:09:57.088Z,4.03
2022-09-06T03:11:08.822Z,3.67
2022-09-06T03:12:20.455Z,4.03
2022-09-06T03:13:32.177Z,4.47
2022-09-06T03:14:43.728Z,4.20
2022-09-06T03:15:59.294Z,5.27
2022-09-06T03:17:10.844Z,4.90
2022-09-06T03:18:23.377Z,4.03
2022-09-06T03:19:34.912Z,4.07
2022-09-06T03:20:48.575Z,4.37
2022-09-06T03:22:00.064Z,4.20
2022-09-06T03:23:11.646Z,3.87
2022-09-06T03:24:23.198Z,3.80
2022-09-06T03:25:34.704Z,3.87
2022-09-06T03:26:46.256Z,4.03
2022-09-06T03:27:57.829Z,3.90
2022-09-06T03:29:09.400Z,3.57
2022-09-06T03:30:20.894Z,4.57
2022-09-06T03:31:32.366Z,4.13
2022-09-06T03:32:44.005Z,4.73
2022-09-06T03:33:55.478Z,4.50
2022-09-06T03:35:07.909Z,3.63
2022-09-06T03:36:19.498Z,4.40
2022-09-06T03:37:31.019Z,4.10
2022-09-06T03:38:42.507Z,4.03
2022-09-06T03:39:54.067Z,4.43
2022-09-06T03:41:05.792Z,4.23
2022-09-06T03:42:17.296Z,4.10
2022-09-06T03:43:29.685Z,4.30
2022-09-06T03:44:41.154Z,4.63
2022-09-06T03:45:53.612Z,5.10
2022-09-06T03:47:05.286Z,4.63
2022-09-06T03:48:17.301Z,4.00
2022-09-06T03:49:28.864Z,4.53
2022-09-06T03:50:44.412Z,4.40
2022-09-06T03:51:55.922Z,3.93
2022-09-06T03:53:07.743Z,3.90
2022-09-06T03:54:19.245Z,4.13
2022-09-06T03:55:30.754Z,4.47
2022-09-06T03:56:42.309Z,3.90
2022-09-06T03:57:53.834Z,3.77
2022-09-06T03:59:05.348Z,15.10
2022-09-06T04:00:16.932Z,7.40
2022-09-06T04:01:28.601Z,4.03
2022-09-06T04:02:40.336Z,4.67
2022-09-06T04:03:51.916Z,4.10
2022-09-06T04:05:03.843Z,4.73
2022-09-06T04:06:15.447Z,3.93
2022-09-06T04:07:26.981Z,3.97
2022-09-06T04:08:39.195Z,4.50
2022-09-06T04:09:50.822Z,4.80
2022-09-06T04:11:02.368Z,4.27
2022-09-06T04:12:13.854Z,4.70
2022-09-06T04:13:26.280Z,4.50
2022-09-06T04:14:37.850Z,4.57
2022-09-06T04:15:49.936Z,4.23
2022-09-06T04:17:01.487Z,4.17
2022-09-06T04:18:13.078Z,4.67
2022-09-06T04:19:24.568Z,4.40
2022-09-06T04:20:36.080Z,4.00
2022-09-06T04:21:47.638Z,4.43
2022-09-06T04:22:59.156Z,4.73
2022-09-06T04:24:10.701Z,4.30
2022-09-06T04:25:22.226Z,4.50
2022-09-06T04:26:33.796Z,4.30
2022-09-06T04:27:45.315Z,4.77
2022-09-06T04:28:56.829Z,4.47
2022-09-06T04:30:08.594Z,4.80
2022-09-06T04:31:20.156Z,4.60
2022-09-06T04:32:32.743Z,4.27
2022-09-06T04:33:44.331Z,4.00
2022-09-06T04:34:55.841Z,4.20
2022-09-06T04:36:09.196Z,4.53
2022-09-06T04:37:20.683Z,4.77
2022-09-06T04:38:35.647Z,4.40
2022-09-06T04:39:47.327Z,4.23
2022-09-06T04:40:58.881Z,4.27
2022-09-06T04:42:10.501Z,4.00
2022-09-06T04:43:22.641Z,5.20
2022-09-06T04:44:34.178Z,4.07
2022-09-06T04:45:45.822Z,4.90
2022-09-06T04:47:09.437Z,5.03
2022-09-06T04:48:21.366Z,4.63
2022-09-06T04:49:32.924Z,5.67
2022-09-06T04:50:44.461Z,4.50
2022-09-06T04:51:55.959Z,4.60
2022-09-06T04:53:08.151Z,4.77
2022-09-06T04:54:19.642Z,5.60
2022-09-06T04:55:31.556Z,5.97
2022-09-06T04:56:43.103Z,6.70
2022-09-06T04:57:54.778Z,5.60
2022-09-06T04:59:06.290Z,5.60
2022-09-06T05:00:17.910Z,4.10
2022-09-06T05:01:29.480Z,5.33
2022-09-06T05:02:41.064Z,4.47
2022-09-06T05:03:56.599Z,4.50
2022-09-06T05:05:08.696Z,3.87
2022-09-06T05:06:21.923Z,4.03
2022-09-06T05:07:33.447Z,4.73
2022-09-06T05:08:44.966Z,4.00
2022-09-06T05:09:56.796Z,4.10
2022-09-06T05:11:09.034Z,4.10
2022-09-06T05:12:20.573Z,4.63
2022-09-06T05:13:32.132Z,4.33
2022-09-06T05:14:43.686Z,4.53
2022-09-06T05:15:55.218Z,3.97
2022-09-06T05:17:06.722Z,4.23
2022-09-06T05:18:18.295Z,4.17
2022-09-06T05:19:29.939Z,4.00
2022-09-06T05:20:41.431Z,4.50
2022-09-06T05:21:52.958Z,3.17
2022-09-06T05:23:04.467Z,3.87
2022-09-06T05:24:16.125Z,4.63
2022-09-06T05:25:27.649Z,3.97
2022-09-06T05:26:39.300Z,4.50
2022-09-06T05:27:50.820Z,5.53
2022-09-06T05:29:02.367Z,4.90
2022-09-06T05:30:14.069Z,3.63
2022-09-06T05:31:25.647Z,4.67
2022-09-06T05:32:37.269Z,4.70
2022-09-06T05:33:48.751Z,4.27
2022-09-06T05:35:00.272Z,5.47
2022-09-06T05:36:11.781Z,4.77
2022-09-06T05:37:23.365Z,5.30
2022-09-06T05:38:34.873Z,4.90
2022-09-06T05:39:46.468Z,5.23
2022-09-06T05:40:58.049Z,5.50
2022-09-06T05:42:09.572Z,4.90
2022-09-06T05:43:21.078Z,4.37
2022-09-06T05:44:36.065Z,6.00
2022-09-06T05:45:47.730Z,5.23
2022-09-06T05:46:59.320Z,5.27
2022-09-06T05:48:10.865Z,5.10
2022-09-06T05:49:22.470Z,5.07
2022-09-06T05:50:34.084Z,5.43
2022-09-06T05:51:50.291Z,5.67
2022-09-06T05:53:02.239Z,5.93
2022-09-06T05:54:13.733Z,5.90
2022-09-06T05:55:25.342Z,5.57
2022-09-06T05:56:37.002Z,5.33
2022-09-06T05:57:48.613Z,5.13
2022-09-06T05:59:00.130Z,5.67
2022-09-06T06:00:12.360Z,5.40
2022-09-06T06:01:26.862Z,6.57
2022-09-06T06:02:38.554Z,5.77
2022-09-06T06:03:54.202Z,5.77
2022-09-06T06:05:06.343Z,5.70
2022-09-06T06:06:17.973Z,5.07
2022-09-06T06:07:29.526Z,5.33
2022-09-06T06:08:41.032Z,5.57
2022-09-06T06:09:52.519Z,5.30
2022-09-06T06:11:04.258Z,6.00
2022-09-06T06:12:15.795Z,4.20
2022-09-06T06:13:28.631Z,4.77
2022-09-06T06:14:40.152Z,4.70
2022-09-06T06:15:51.679Z,5.30
2022-09-06T06:17:03.241Z,4.47
2022-09-06T06:18:14.790Z,4.60
2022-09-06T06:19:26.813Z,4.90
2022-09-06T06:20:38.310Z,4.23
2022-09-06T06:21:49.801Z,4.80
2022-09-06T06:23:01.302Z,4.47
2022-09-06T06:24:12.788Z,4.40
2022-09-06T06:25:26.318Z,5.13
2022-09-06T06:26:38.138Z,4.50
2022-09-06T06:27:49.674Z,4.23
2022-09-06T06:29:05.679Z,4.87
2022-09-06T06:30:18.614Z,4.87
2022-09-06T06:31:30.963Z,5.27
2022-09-06T06:32:42.817Z,4.63
2022-09-06T06:33:54.426Z,5.50
2022-09-06T06:35:06.220Z,5.50
2022-09-06T06:36:17.707Z,5.40
2022-09-06T06:37:29.249Z,4.87
2022-09-06T06:38:41.949Z,4.60
2022-09-06T06:39:53.526Z,5.17
2022-09-06T06:41:07.058Z,4.70
2022-09-06T06:42:18.896Z,5.43
2022-09-06T06:43:36.339Z,5.57
2022-09-06T06:44:47.967Z,5.40
2022-09-06T06:45:59.540Z,5.13
2022-09-06T06:47:11.111Z,4.73
2022-09-06T06:48:22.672Z,4.37
2022-09-06T06:49:34.244Z,4.10
2022-09-06T06:50:45.948Z,4.07
2022-09-06T06:51:57.501Z,4.50
2022-09-06T06:53:09.047Z,4.97
2022-09-06T06:54:20.710Z,4.87
2022-09-06T06:55:32.218Z,4.77
2022-09-06T06:56:45.608Z,5.00
2022-09-06T06:57:59.496Z,4.47
2022-09-06T06:59:11.186Z,5.10
2022-09-06T07:00:26.354Z,4.47
2022-09-06T07:01:40.004Z,4.37
2022-09-06T07:02:53.082Z,4.33
2022-09-06T07:04:05.268Z,4.40
2022-09-06T07:08:20.809Z,4.53
2022-09-06T07:11:04.581Z,4.50
2022-09-06T07:12:16.120Z,5.47
2022-09-06T07:13:27.766Z,5.00
2022-09-06T07:14:39.379Z,4.70
2022-09-06T07:15:50.967Z,4.93
2022-09-06T07:17:04.127Z,4.60
2022-09-06T07:18:18.922Z,4.13
2022-09-06T07:22:33.901Z,4.20
2022-09-06T07:25:21.162Z,4.60
2022-09-06T07:26:33.385Z,4.80
2022-09-06T07:29:03.861Z,3.90
2022-09-06T07:30:15.474Z,3.67
2022-09-06T07:32:59.375Z,4.13
2022-09-06T07:34:11.435Z,4.07
2022-09-06T07:35:23.036Z,3.47
2022-09-06T07:36:35.354Z,4.40
2022-09-06T07:37:56.694Z,3.90
2022-09-06T07:39:08.266Z,4.60
2022-09-06T07:40:19.779Z,4.13
2022-09-06T07:41:31.266Z,4.37
2022-09-06T07:42:42.875Z,4.53
2022-09-06T07:43:58.282Z,4.47
2022-09-06T07:45:09.850Z,4.13
2022-09-06T07:46:22.317Z,4.70
2022-09-06T07:49:06.226Z,7.67
2022-09-06T07:51:49.296Z,4.73
2022-09-06T07:53:07.529Z,4.37
2022-09-06T07:54:30.696Z,4.17
2022-09-06T07:55:42.982Z,4.37
2022-09-06T07:56:54.537Z,4.70
2022-09-06T07:58:06.132Z,4.90
2022-09-06T07:59:19.144Z,3.87
2022-09-06T08:00:30.770Z,4.07
2022-09-06T08:01:42.363Z,4.43
2022-09-06T08:02:53.962Z,4.10
2022-09-06T08:04:13.215Z,4.30
2022-09-06T08:10:00.840Z,5.13
2022-09-06T08:11:12.456Z,5.70
2022-09-06T08:12:24.043Z,4.40
2022-09-06T08:13:36.365Z,4.33
2022-09-06T08:14:48.076Z,4.10
2022-09-06T08:16:00.456Z,3.97
2022-09-06T08:17:12.099Z,3.87
2022-09-06T08:18:23.589Z,3.90
2022-09-06T08:19:35.425Z,3.87
2022-09-06T08:20:47.149Z,4.20
2022-09-06T08:21:58.684Z,4.70
2022-09-06T08:23:10.582Z,4.80
2022-09-06T08:24:22.154Z,5.43
2022-09-06T08:25:33.748Z,4.83
2022-09-06T08:26:45.528Z,3.87
2022-09-06T08:27:57.110Z,3.80
2022-09-06T08:29:09.238Z,3.80
2022-09-06T08:30:21.071Z,3.70
2022-09-06T08:31:33.536Z,4.10
2022-09-06T08:32:45.110Z,3.97
2022-09-06T08:33:57.147Z,4.47
2022-09-06T08:35:08.939Z,3.73
2022-09-06T08:36:20.939Z,4.37
2022-09-06T08:37:32.460Z,4.30
2022-09-06T08:38:44.355Z,4.57
2022-09-06T08:39:55.875Z,4.30
2022-09-06T08:41:09.464Z,4.07
2022-09-06T08:42:20.983Z,3.73
2022-09-06T08:43:32.488Z,4.77
2022-09-06T08:44:57.357Z,3.80
2022-09-06T08:46:09.933Z,3.77
2022-09-06T08:47:21.984Z,3.57
2022-09-06T08:48:35.824Z,3.87
2022-09-06T08:49:47.435Z,3.47
2022-09-06T08:51:09.542Z,3.50
2022-09-06T08:52:27.267Z,3.67
2022-09-06T08:53:47.066Z,4.30
2022-09-06T08:55:14.719Z,3.73
2022-09-06T08:56:34.311Z,4.13
2022-09-06T08:57:53.438Z,3.40
2022-09-06T08:59:06.583Z,3.27
2022-09-06T09:00:19.644Z,3.60
2022-09-06T09:01:41.632Z,3.77
2022-09-06T09:02:58.958Z,4.23
2022-09-06T09:04:15.359Z,4.63
2022-09-06T09:05:26.922Z,4.13
2022-09-06T09:06:38.496Z,3.63
2022-09-06T09:08:02.123Z,3.63
2022-09-06T09:09:15.028Z,3.30
2022-09-06T09:10:30.744Z,4.10
2022-09-06T09:11:43.557Z,3.60
2022-09-06T09:12:55.122Z,3.57
2022-09-06T09:14:15.632Z,4.10
2022-09-06T09:15:28.863Z,3.77
2022-09-06T09:16:40.408Z,4.63
2022-09-06T09:17:52.880Z,4.20
2022-09-06T09:19:05.302Z,3.97
2022-09-06T09:20:17.468Z,3.63
2022-09-06T09:21:31.228Z,3.50
2022-09-06T09:22:44.566Z,3.87
2022-09-06T09:23:58.957Z,3.40
2022-09-06T09:25:16.396Z,3.80
2022-09-06T09:26:31.038Z,4.00
2022-09-06T09:27:42.886Z,3.40
2022-09-06T09:29:11.302Z,3.80
2022-09-06T09:31:55.984Z,3.00
2022-09-06T09:33:20.798Z,3.03
2022-09-06T09:34:33.889Z,3.57
2022-09-06T09:35:45.559Z,3.47
2022-09-06T09:38:49.950Z,3.40
2022-09-06T09:40:01.507Z,3.80
2022-09-06T09:41:27.462Z,3.17
2022-09-06T09:42:39.373Z,3.37
2022-09-06T09:44:02.279Z,3.30
2022-09-06T09:45:21.946Z,3.03
2022-09-06T09:46:34.628Z,3.30
2022-09-06T09:47:46.199Z,4.13
2022-09-06T09:49:08.770Z,3.17
2022-09-06T09:50:31.220Z,4.80
2022-09-06T09:52:01.192Z,3.20
2022-09-06T09:53:13.928Z,4.10
2022-09-06T09:54:32.208Z,3.97
2022-09-06T09:55:44.275Z,3.90
2022-09-06T09:56:56.787Z,3.40
2022-09-06T09:58:23.136Z,4.00
2022-09-06T09:59:40.737Z,3.83
2022-09-06T10:01:09.110Z,3.43
2022-09-06T10:02:39.152Z,3.13
2022-09-06T10:05:23.331Z,3.20
2022-09-06T10:08:09.377Z,3.30
2022-09-06T10:09:22.083Z,3.20
2022-09-06T10:10:40.993Z,3.57
2022-09-06T10:11:55.466Z,3.20
2022-09-06T10:13:20.718Z,3.37
2022-09-06T10:14:33.908Z,3.50
2022-09-06T10:15:45.488Z,3.53
2022-09-06T10:16:57.464Z,3.20
2022-09-06T10:18:38.320Z,3.57
2022-09-06T10:19:49.891Z,3.13
2022-09-06T10:21:02.356Z,4.20
2022-09-06T10:22:35.461Z,2.80
2022-09-06T10:25:38.062Z,3.53
2022-09-06T10:26:54.074Z,3.20
2022-09-06T10:28:20.068Z,3.07
2022-09-06T10:29:34.382Z,3.33
2022-09-06T10:31:02.526Z,3.20
2022-09-06T10:32:14.079Z,3.20
2022-09-06T10:33:25.556Z,3.37
2022-09-06T10:34:40.065Z,3.20
2022-09-06T10:35:52.222Z,3.47
2022-09-06T10:37:20.261Z,3.10
2022-09-06T10:38:32.494Z,3.43
2022-09-06T10:39:55.292Z,3.17
2022-09-06T10:41:09.609Z,3.17
2022-09-06T10:42:24.003Z,3.30
2022-09-06T10:43:44.516Z,3.23
2022-09-06T10:45:15.065Z,3.17
2022-09-06T10:46:27.285Z,2.50
2022-09-06T10:47:57.611Z,3.10
2022-09-06T10:49:11.547Z,3.13
2022-09-06T10:50:31.273Z,3.63
2022-09-06T10:51:51.990Z,3.10
2022-09-06T10:53:23.702Z,3.10
2022-09-06T10:54:37.705Z,3.03
2022-09-06T10:55:52.969Z,3.60
2022-09-06T10:57:04.514Z,3.20
2022-09-06T10:58:21.280Z,3.10
2022-09-06T10:59:42.220Z,3.60
2022-09-06T11:00:55.495Z,4.17
2022-09-06T11:02:26.261Z,2.83
2022-09-06T11:04:00.094Z,3.00
2022-09-06T11:06:50.891Z,2.23
2022-09-06T11:09:58.154Z,2.50
2022-09-06T11:11:17.259Z,2.60
2022-09-06T11:12:42.582Z,2.67
2022-09-06T11:13:54.053Z,2.37
2022-09-06T11:15:06.880Z,2.67
2022-09-06T11:16:25.221Z,2.53
2022-09-06T11:17:46.264Z,2.53
2022-09-06T11:19:01.077Z,2.40
2022-09-06T11:20:20.398Z,2.67
2022-09-06T11:21:50.972Z,2.53
2022-09-06T11:23:07.008Z,2.30
2022-09-06T11:24:25.856Z,2.60
2022-09-06T11:25:49.456Z,1.80
2022-09-06T11:27:05.815Z,2.60
2022-09-06T11:28:21.982Z,2.37
2022-09-06T11:29:34.836Z,2.13
2022-09-06T11:30:47.390Z,1.80
2022-09-06T11:32:17.103Z,2.20
2022-09-06T11:33:30.470Z,2.70
2022-09-06T11:34:50.778Z,2.23
2022-09-06T11:36:19.142Z,2.40
2022-09-06T11:37:35.624Z,2.10
2022-09-06T11:38:55.428Z,2.27
2022-09-06T11:40:28.715Z,2.40
2022-09-06T11:41:42.069Z,1.90
2022-09-06T11:42:53.524Z,2.37
2022-09-06T11:44:05.591Z,2.33
2022-09-06T11:45:23.146Z,1.90
2022-09-06T11:46:34.720Z,2.03
2022-09-06T11:47:48.255Z,1.90
2022-09-06T11:49:00.443Z,1.83
2022-09-06T11:50:20.853Z,1.93
2022-09-06T11:51:35.516Z,2.03
2022-09-06T11:52:49.756Z,2.07
2022-09-06T11:54:04.710Z,1.77
2022-09-06T11:55:22.611Z,1.60
2022-09-06T11:57:00.926Z,2.17
2022-09-06T11:58:23.210Z,1.90
2022-09-06T11:59:47.884Z,2.27
2022-09-06T12:01:18.941Z,1.83
2022-09-06T12:02:32.683Z,2.10
2022-09-06T12:04:10.013Z,1.70
2022-09-06T12:05:23.817Z,1.80
2022-09-06T12:06:40.900Z,2.10
2022-09-06T12:08:10.511Z,2.37
2022-09-06T12:09:27.833Z,1.80
2022-09-06T12:10:39.442Z,1.70
2022-09-06T12:11:51.596Z,2.10
2022-09-06T12:13:23.514Z,1.80
2022-09-06T12:14:35.932Z,1.87
2022-09-06T12:15:53.717Z,2.10
2022-09-06T12:17:07.396Z,2.17
2022-09-06T12:18:54.260Z,2.13
2022-09-06T12:20:08.025Z,2.10
2022-09-06T12:21:32.910Z,2.00
2022-09-06T12:22:47.841Z,1.90
2022-09-06T12:24:02.517Z,3.43
2022-09-06T12:25:18.199Z,1.70
2022-09-06T12:26:48.883Z,1.60
2022-09-06T12:28:05.189Z,2.17
2022-09-06T12:29:17.496Z,2.03
2022-09-06T12:30:37.459Z,2.20
2022-09-06T12:31:53.697Z,2.40
2022-09-06T12:33:11.261Z,2.10
2022-09-06T12:34:24.789Z,2.53
2022-09-06T12:37:10.660Z,2.10
2022-09-06T12:38:24.162Z,2.43
2022-09-06T12:39:35.714Z,1.73
2022-09-06T12:40:48.851Z,2.33
2022-09-06T12:42:05.074Z,1.73
2022-09-06T12:43:17.253Z,1.70
2022-09-06T12:44:37.205Z,1.77
2022-09-06T12:45:50.844Z,1.80
2022-09-06T12:47:10.152Z,2.10
2022-09-06T12:48:29.476Z,1.53
2022-09-06T12:49:41.075Z,1.77
2022-09-06T12:51:04.652Z,2.30
2022-09-06T12:52:19.006Z,1.93
2022-09-06T12:53:31.719Z,2.33
2022-09-06T12:54:50.086Z,1.90
2022-09-06T12:56:09.319Z,1.90
2022-09-06T12:57:22.230Z,1.70
2022-09-06T12:58:33.929Z,1.67
2022-09-06T12:59:55.308Z,1.83
2022-09-06T13:01:12.562Z,2.37
2022-09-06T13:02:27.567Z,6.93
2022-09-06T13:03:39.185Z,3.23
2022-09-06T13:04:53.250Z,2.50
2022-09-06T13:06:06.230Z,2.40
2022-09-06T13:07:19.535Z,2.87
2022-09-06T13:08:39.765Z,2.57
2022-09-06T13:09:53.719Z,2.50
2022-09-06T13:11:08.716Z,3.77
2022-09-06T13:12:27.976Z,2.53
2022-09-06T13:13:46.615Z,2.47
2022-09-06T13:15:01.455Z,2.57
2022-09-06T13:16:18.494Z,3.20
2022-09-06T13:17:30.538Z,3.60
2022-09-06T13:18:42.124Z,2.53
2022-09-06T13:19:53.884Z,2.93
2022-09-06T13:21:11.635Z,2.63
2022-09-06T13:22:40.185Z,3.33
2022-09-06T13:23:51.749Z,3.50
2022-09-06T13:25:03.725Z,3.30
2022-09-06T13:26:15.438Z,3.60
2022-09-06T13:27:39.339Z,3.00
2022-09-06T13:28:50.843Z,3.63
2022-09-06T13:30:09.987Z,3.27
2022-09-06T13:31:21.894Z,3.40
2022-09-06T13:32:34.153Z,3.33
2022-09-06T13:33:46.532Z,3.83
2022-09-06T13:34:59.203Z,3.63
2022-09-06T13:36:10.667Z,3.50
2022-09-06T13:37:22.497Z,3.77
2022-09-06T13:38:34.529Z,3.27
2022-09-06T13:39:46.473Z,3.77
2022-09-06T13:41:12.459Z,3.13
2022-09-06T13:42:33.308Z,3.80
2022-09-06T13:43:45.951Z,3.40
2022-09-06T13:45:01.804Z,3.50
2022-09-06T13:46:13.816Z,3.77
2022-09-06T13:47:29.429Z,3.53
2022-09-06T13:48:41.735Z,3.67
2022-09-06T13:49:55.329Z,3.77
2022-09-06T13:51:07.856Z,3.23
2022-09-06T13:52:19.341Z,2.90
2022-09-06T13:53:31.789Z,3.53
2022-09-06T13:54:44.831Z,3.80
2022-09-06T13:55:56.901Z,3.20
2022-09-06T13:57:11.639Z,3.77
2022-09-06T13:58:23.228Z,3.17
2022-09-06T13:59:35.341Z,4.03
2022-09-06T14:00:47.189Z,3.90
2022-09-06T14:02:06.088Z,3.93
2022-09-06T14:03:43.866Z,3.73
2022-09-06T14:04:55.370Z,3.60
2022-09-06T14:06:08.312Z,3.57
2022-09-06T14:07:19.877Z,3.40
2022-09-06T14:08:55.760Z,3.90
2022-09-06T14:10:03.975Z,3.73
2022-09-06T14:11:15.701Z,3.73
2022-09-06T14:12:28.267Z,3.80
2022-09-06T14:13:39.816Z,3.67
2022-09-06T14:14:51.353Z,3.57
2022-09-06T14:16:05.415Z,3.37
2022-09-06T14:17:17.553Z,4.20
2022-09-06T14:18:29.212Z,3.37
2022-09-06T14:19:41.433Z,4.27
2022-09-06T14:20:54.066Z,4.00
2022-09-06T14:22:06.982Z,4.07
2022-09-06T14:23:18.598Z,3.57
2022-09-06T14:24:30.130Z,3.40
2022-09-06T14:25:41.703Z,3.70
2022-09-06T14:26:53.299Z,3.53
2022-09-06T14:28:05.905Z,3.50
2022-09-06T14:29:17.651Z,4.20
2022-09-06T14:30:29.604Z,3.80
2022-09-06T14:31:41.238Z,3.63
2022-09-06T14:32:53.054Z,3.57
2022-09-06T14:34:04.493Z,3.37
2022-09-06T14:35:16.005Z,3.47
2022-09-06T14:36:31.607Z,3.87
2022-09-06T14:37:44.133Z,3.87
2022-09-06T14:38:57.037Z,4.47
2022-09-06T14:40:08.792Z,4.00
2022-09-06T14:41:21.739Z,4.60
2022-09-06T14:42:33.903Z,4.17
2022-09-06T14:43:48.532Z,4.80
2022-09-06T14:45:03.750Z,4.77
2022-09-06T14:46:16.328Z,4.67
2022-09-06T14:47:27.855Z,4.90
2022-09-06T14:48:42.275Z,5.03
2022-09-06T14:49:54.072Z,5.40
2022-09-06T14:51:08.862Z,4.77
2022-09-06T14:52:20.441Z,4.40
2022-09-06T14:53:40.403Z,4.00
2022-09-06T14:54:52.677Z,5.07
2022-09-06T14:56:05.036Z,4.63
2022-09-06T14:57:16.749Z,4.70
2022-09-06T14:58:31.039Z,4.23
2022-09-06T14:59:42.630Z,4.93
2022-09-06T15:00:54.137Z,5.17
2022-09-06T15:02:05.719Z,4.57
2022-09-06T15:03:17.424Z,4.90
2022-09-06T15:04:29.995Z,4.23
2022-09-06T15:05:41.600Z,4.40
2022-09-06T15:06:53.853Z,4.83
2022-09-06T15:08:05.617Z,4.50
2022-09-06T15:09:18.880Z,5.23
2022-09-06T15:10:31.630Z,5.50
2022-09-06T15:11:45.571Z,4.07
2022-09-06T15:12:57.132Z,4.80
2022-09-06T15:14:12.166Z,4.93
2022-09-06T15:15:23.971Z,4.93
2022-09-06T15:16:36.254Z,4.30
2022-09-06T15:17:49.900Z,4.50
2022-09-06T15:19:02.859Z,4.60
2022-09-06T15:20:14.446Z,4.50
2022-09-06T15:21:26.617Z,4.17
2022-09-06T15:22:38.187Z,4.23
2022-09-06T15:23:51.368Z,4.87
2022-09-06T15:25:02.959Z,4.43
2022-09-06T15:26:15.872Z,5.00
2022-09-06T15:27:28.313Z,5.00
2022-09-06T15:28:40.773Z,5.20
2022-09-06T15:29:52.326Z,4.77
2022-09-06T15:31:04.565Z,4.50
2022-09-06T15:32:17.861Z,5.37
2022-09-06T15:33:33.054Z,4.90
2022-09-06T15:34:52.565Z,5.13
2022-09-06T15:36:08.000Z,4.70
2022-09-06T15:37:19.527Z,4.70
2022-09-06T15:38:31.019Z,4.73
2022-09-06T15:39:42.564Z,5.10
2022-09-06T15:41:07.350Z,4.47
2022-09-06T15:42:19.563Z,4.93
2022-09-06T15:43:32.070Z,4.90
2022-09-06T15:44:43.842Z,4.47
2022-09-06T15:45:55.408Z,4.17
2022-09-06T15:47:06.982Z,4.13
2022-09-06T15:48:18.478Z,4.27
2022-09-06T15:49:34.732Z,4.87
2022-09-06T15:50:51.497Z,4.97
2022-09-06T15:52:03.777Z,5.07
2022-09-06T15:53:15.268Z,4.67
2022-09-06T15:54:45.881Z,5.00
2022-09-06T15:56:02.810Z,4.57
2022-09-06T15:57:16.237Z,4.87
2022-09-06T15:58:28.642Z,4.87
2022-09-06T15:59:41.063Z,5.07
2022-09-06T16:01:01.503Z,5.67
2022-09-06T16:02:13.826Z,5.23
2022-09-06T16:03:25.575Z,4.50
2022-09-06T16:04:37.095Z,4.57
2022-09-06T16:07:20.331Z,6.77
2022-09-06T16:08:32.031Z,5.57
2022-09-06T16:09:43.616Z,8.93
2022-09-06T16:10:55.679Z,7.33
2022-09-06T16:12:07.364Z,9.77
2022-09-06T16:13:18.916Z,11.80
2022-09-06T16:14:30.486Z,11.10
2022-09-06T16:15:42.524Z,10.10
2022-09-06T16:16:54.906Z,9.73
2022-09-06T16:18:06.758Z,8.93
2022-09-06T16:19:22.047Z,7.63
2022-09-06T16:20:36.954Z,7.50
2022-09-06T16:21:48.496Z,6.37
2022-09-06T16:23:03.100Z,5.87
2022-09-06T16:24:14.990Z,5.43
2022-09-06T16:25:26.610Z,5.27
2022-09-06T16:26:39.707Z,3.93
2022-09-06T16:27:51.631Z,4.80
2022-09-06T16:29:04.288Z,5.87
2022-09-06T16:30:16.045Z,4.90
2022-09-06T16:31:28.468Z,4.83
2022-09-06T16:32:39.998Z,5.43
2022-09-06T16:33:51.914Z,4.57
2022-09-06T16:35:05.992Z,4.70
2022-09-06T16:36:17.880Z,4.23
2022-09-06T16:37:29.390Z,4.53
2022-09-06T16:38:41.572Z,4.27
2022-09-06T16:39:53.384Z,4.40
2022-09-06T16:41:11.011Z,4.00
2022-09-06T16:42:22.832Z,4.43
2022-09-06T16:43:34.584Z,4.27
2022-09-06T16:44:46.093Z,4.10
2022-09-06T16:45:58.655Z,4.07
2022-09-06T16:47:14.694Z,4.13
2022-09-06T16:48:28.252Z,3.47
2022-09-06T16:49:39.841Z,3.50
2022-09-06T16:50:51.504Z,4.33
2022-09-06T16:52:03.158Z,3.50
2022-09-06T16:53:15.869Z,3.37
2022-09-06T16:54:28.968Z,3.40
2022-09-06T16:55:40.501Z,4.47
2022-09-06T16:56:52.596Z,3.97
2022-09-06T16:58:04.142Z,3.83
2022-09-06T16:59:17.277Z,3.73
2022-09-06T17:00:28.934Z,3.80
2022-09-06T17:01:44.638Z,4.10
2022-09-06T17:02:56.782Z,4.07
2022-09-06T17:04:08.689Z,3.73
2022-09-06T17:05:20.530Z,3.73